createdAt,value
2017-07-11T03:54:14.475Z,6.27
2017-07-11T03:56:41.220Z,6.40
2017-07-11T03:59:07.990Z,8.73
2017-07-11T04:01:34.800Z,9.10
2017-07-11T04:04:01.600Z,10.17
2017-07-11T04:06:28.339Z,8.03
2017-07-11T04:08:55.136Z,9.90
2017-07-11T04:11:21.899Z,8.80
2017-07-11T04:13:48.658Z,10.80
2017-07-11T04:16:15.452Z,13.03
2017-07-11T04:18:42.204Z,10.97
2017-07-11T04:21:08.944Z,9.90
2017-07-11T04:23:35.731Z,10.07
2017-07-11T04:26:02.499Z,11.83
2017-07-11T04:28:29.255Z,9.90
2017-07-11T04:30:56.079Z,11.30
2017-07-11T04:33:23.637Z,10.90
2017-07-11T04:35:50.418Z,11.83
2017-07-11T04:38:17.566Z,12.13
2017-07-11T04:40:44.340Z,11.30
2017-07-11T04:43:11.087Z,11.13
2017-07-11T04:45:37.903Z,11.03
2017-07-11T04:48:04.670Z,11.50
2017-07-11T04:50:31.448Z,11.60
2017-07-11T04:52:58.240Z,12.10
2017-07-11T04:55:24.987Z,11.80
2017-07-11T04:57:51.755Z,12.73
2017-07-11T05:00:18.564Z,11.10
2017-07-11T05:02:45.315Z,12.03
2017-07-11T05:05:12.063Z,11.93
2017-07-11T05:07:38.869Z,11.63
2017-07-11T05:10:05.641Z,14.03
2017-07-11T05:12:32.430Z,14.20
2017-07-11T05:14:59.570Z,13.50
2017-07-11T05:17:26.362Z,13.00
2017-07-11T05:19:53.127Z,15.23
2017-07-11T05:22:21.270Z,16.30
2017-07-11T05:24:48.075Z,14.53
2017-07-11T05:27:14.848Z,15.83
2017-07-11T05:29:41.648Z,17.03
2017-07-11T05:32:08.430Z,16.80
2017-07-11T05:34:35.176Z,17.40
2017-07-11T05:37:01.978Z,21.87
2017-07-11T05:39:28.731Z,16.33
2017-07-11T05:41:55.479Z,18.10
2017-07-11T05:44:22.271Z,20.20
2017-07-11T05:46:49.059Z,19.80
2017-07-11T05:49:15.816Z,20.87
2017-07-11T05:51:42.611Z,18.70
2017-07-11T05:54:09.381Z,15.17
2017-07-11T05:56:36.153Z,14.10
2017-07-11T05:59:03.531Z,15.80
2017-07-11T06:01:30.304Z,17.03
2017-07-11T06:03:57.059Z,18.60
2017-07-11T06:06:23.924Z,16.80
2017-07-11T06:08:50.696Z,21.00
2017-07-11T06:11:17.437Z,18.77
2017-07-11T06:13:44.254Z,16.87
2017-07-11T06:16:10.995Z,19.67
2017-07-11T06:18:37.791Z,235.97
2017-07-11T06:21:04.588Z,25.73
2017-07-11T06:23:31.353Z,27.27
2017-07-11T06:25:58.120Z,26.10
2017-07-11T06:28:25.415Z,23.63
2017-07-11T06:30:52.170Z,24.93
2017-07-11T06:33:18.912Z,24.70
2017-07-11T06:35:45.982Z,27.40
2017-07-11T06:38:12.770Z,29.70
2017-07-11T06:40:39.531Z,26.90
2017-07-11T06:43:06.336Z,26.90
2017-07-11T06:45:33.462Z,27.37
2017-07-11T06:48:00.226Z,26.27
2017-07-11T06:50:27.764Z,27.27
2017-07-11T06:52:54.526Z,28.47
2017-07-11T06:55:21.275Z,27.83
2017-07-11T06:57:48.412Z,27.23
2017-07-11T07:00:15.164Z,24.93
2017-07-11T07:02:41.923Z,26.00
2017-07-11T07:05:08.759Z,24.17
2017-07-11T07:07:35.536Z,23.70
2017-07-11T07:10:02.301Z,25.30
2017-07-11T07:12:29.119Z,23.60
2017-07-11T07:14:55.885Z,24.47
2017-07-11T07:17:22.664Z,20.27
2017-07-11T07:19:49.445Z,20.57
2017-07-11T07:22:16.239Z,21.37
2017-07-11T07:24:42.988Z,18.10
2017-07-11T07:27:10.502Z,22.57
2017-07-11T07:29:37.259Z,20.43
2017-07-11T07:32:04.032Z,22.80
2017-07-11T07:34:30.882Z,22.20
2017-07-11T07:36:57.680Z,23.23
2017-07-11T07:39:24.427Z,19.23
2017-07-11T07:41:51.223Z,23.10
2017-07-11T07:44:18.014Z,216.00
2017-07-11T07:46:44.776Z,999.90
2017-07-11T07:49:11.593Z,999.90
2017-07-11T07:51:38.348Z,999.90
2017-07-11T07:54:05.134Z,999.90
2017-07-11T07:56:32.555Z,999.90
2017-07-11T07:58:59.335Z,999.90
2017-07-11T08:01:26.115Z,999.90
2017-07-11T08:03:58.871Z,999.90
2017-07-11T08:06:25.636Z,999.90
2017-07-11T08:08:52.404Z,999.90
2017-07-11T08:11:19.919Z,999.90
2017-07-11T08:13:46.684Z,999.90
2017-07-11T08:16:13.474Z,999.90
2017-07-11T08:18:40.304Z,999.90
2017-07-11T08:21:07.755Z,999.90
2017-07-11T08:23:34.541Z,999.90
2017-07-11T08:26:01.359Z,999.90
2017-07-11T08:28:28.166Z,999.90
2017-07-11T08:30:54.919Z,999.90
2017-07-11T08:33:21.726Z,999.90
2017-07-11T08:35:48.805Z,999.90
2017-07-11T08:38:15.573Z,999.90
2017-07-11T08:40:42.390Z,999.90
2017-07-11T08:43:09.187Z,999.90
2017-07-11T08:45:35.979Z,999.90
2017-07-11T08:48:02.805Z,999.90
2017-07-11T08:50:29.582Z,999.90
2017-07-11T08:52:56.382Z,999.90
2017-07-11T08:55:23.197Z,999.90
2017-07-11T08:57:49.979Z,999.90
2017-07-11T09:00:17.119Z,999.90
2017-07-11T09:02:43.924Z,999.90
2017-07-11T09:05:10.723Z,10.27
2017-07-11T09:07:37.487Z,6.20
2017-07-11T09:10:04.279Z,0.90
2017-07-11T09:12:31.033Z,2.27
2017-07-11T09:14:57.776Z,10.83
2017-07-11T09:17:24.556Z,12.33
2017-07-11T09:19:51.312Z,15.87
2017-07-11T09:22:18.059Z,19.77
2017-07-11T09:24:44.871Z,19.93
2017-07-11T09:27:11.640Z,22.30
2017-07-11T09:29:38.389Z,20.70
2017-07-11T09:32:05.197Z,19.37
2017-07-11T09:34:31.947Z,19.70
2017-07-11T09:36:58.740Z,21.83
2017-07-11T09:39:25.566Z,21.80
2017-07-11T09:41:52.339Z,21.27
2017-07-11T09:44:19.834Z,18.93
2017-07-11T09:46:46.651Z,18.77
2017-07-11T09:49:13.414Z,18.47
2017-07-11T09:51:40.181Z,17.70
2017-07-11T09:54:06.982Z,15.30
2017-07-11T09:56:33.728Z,14.57
2017-07-11T09:59:00.483Z,17.93
2017-07-11T10:01:27.306Z,15.70
2017-07-11T10:03:54.060Z,14.70
2017-07-11T10:06:21.604Z,13.70
2017-07-11T10:08:48.414Z,12.27
2017-07-11T10:11:15.178Z,12.10
2017-07-11T10:13:41.946Z,30.10
2017-07-11T10:16:08.747Z,11.80
2017-07-11T10:18:35.505Z,11.47
2017-07-11T10:21:02.293Z,13.90
2017-07-11T10:23:29.076Z,13.20
2017-07-11T10:25:55.842Z,12.77
2017-07-11T10:28:22.607Z,13.20
2017-07-11T10:30:49.391Z,15.20
2017-07-11T10:33:16.162Z,12.50
2017-07-11T10:35:42.938Z,12.67
2017-07-11T10:38:10.163Z,12.77
2017-07-11T10:40:36.970Z,11.43
2017-07-11T10:43:03.715Z,12.80
2017-07-11T10:45:30.508Z,12.40
2017-07-11T10:47:57.256Z,12.40
2017-07-11T10:50:24.029Z,13.03
2017-07-11T10:52:50.875Z,13.20
2017-07-11T10:55:17.652Z,13.80
2017-07-11T10:57:44.423Z,13.43
2017-07-11T11:00:11.227Z,46.70
2017-07-11T11:02:37.980Z,12.40
2017-07-11T11:05:04.731Z,11.90
2017-07-11T11:07:32.138Z,7.10
2017-07-11T11:09:58.938Z,999.90
2017-07-11T11:12:25.747Z,47.67
2017-07-11T11:14:52.555Z,5.77
2017-07-11T11:17:19.362Z,7.03
2017-07-11T11:19:46.143Z,29.20
2017-07-11T11:22:12.954Z,7.17
2017-07-11T11:24:39.704Z,7.87
2017-07-11T11:27:06.467Z,7.90
2017-07-11T11:29:33.267Z,7.07
2017-07-11T11:32:00.038Z,9.13
2017-07-11T11:34:26.814Z,9.83
2017-07-11T11:36:53.623Z,8.03
2017-07-11T11:39:20.595Z,7.90
2017-07-11T11:41:47.353Z,1.73
2017-07-11T11:44:14.146Z,3.20
2017-07-11T11:46:40.917Z,3.07
2017-07-11T11:49:07.698Z,2.10
2017-07-11T11:51:34.512Z,4.40
2017-07-11T11:54:01.268Z,3.93
2017-07-11T11:56:28.034Z,5.10
2017-07-11T11:58:54.844Z,5.30
2017-07-11T12:01:21.936Z,6.47
2017-07-11T12:03:48.710Z,6.40
2017-07-11T12:06:15.509Z,5.87
2017-07-11T12:08:42.281Z,7.37
2017-07-11T12:11:09.047Z,7.00
2017-07-11T12:13:35.858Z,8.27
2017-07-11T12:16:02.644Z,7.17
2017-07-11T12:18:29.388Z,6.40
2017-07-11T12:20:56.900Z,6.63
2017-07-11T12:23:23.652Z,6.20
2017-07-11T12:25:50.442Z,5.90
2017-07-11T12:28:17.255Z,10.40
2017-07-11T12:30:44.024Z,7.00
2017-07-11T12:33:10.788Z,7.50
2017-07-11T12:35:37.592Z,6.20
2017-07-11T12:38:04.335Z,6.93
2017-07-11T12:40:31.092Z,6.03
2017-07-11T12:42:57.915Z,6.67
2017-07-11T12:45:24.677Z,7.30
2017-07-11T12:47:51.433Z,7.10
2017-07-11T12:50:18.229Z,6.83
2017-07-11T12:52:45.477Z,6.90
2017-07-11T12:55:12.242Z,7.17
2017-07-11T12:57:39.020Z,5.50
2017-07-11T13:00:05.779Z,5.63
2017-07-11T13:02:32.567Z,4.13
2017-07-11T13:04:59.366Z,3.23
2017-07-11T13:07:26.130Z,2.90
2017-07-11T13:09:52.899Z,2.90
2017-07-11T13:12:19.729Z,1.00
2017-07-11T13:14:46.579Z,2.67
2017-07-11T13:17:13.324Z,2.90
2017-07-11T13:19:40.117Z,2.90
2017-07-11T13:22:06.896Z,3.00
2017-07-11T13:24:33.682Z,7.70
2017-07-11T13:27:00.499Z,3.97
2017-07-11T13:29:27.264Z,2.97
2017-07-11T13:31:54.010Z,2.97
2017-07-11T13:34:20.813Z,2.87
2017-07-11T13:36:47.582Z,2.23
2017-07-11T13:39:14.347Z,2.97
2017-07-11T13:41:41.853Z,2.90
2017-07-11T13:44:08.596Z,3.13
2017-07-11T13:46:35.343Z,3.40
2017-07-11T13:49:02.119Z,3.37
2017-07-11T13:51:28.887Z,2.63
2017-07-11T13:53:55.651Z,3.33
2017-07-11T13:56:22.471Z,3.70
2017-07-11T13:58:49.242Z,3.90
2017-07-11T14:01:15.992Z,2.90
2017-07-11T14:03:43.135Z,3.80
2017-07-11T14:06:09.907Z,2.40
2017-07-11T14:08:36.666Z,2.57
2017-07-11T14:11:03.470Z,1.73
2017-07-11T14:13:30.237Z,2.93
2017-07-11T14:15:56.999Z,3.00
2017-07-11T14:18:23.787Z,3.20
2017-07-11T14:20:50.541Z,2.63
2017-07-11T14:23:17.297Z,3.10
2017-07-11T14:25:44.738Z,2.40
2017-07-11T14:28:11.488Z,1.80
2017-07-11T14:30:38.259Z,1.40
2017-07-11T14:33:05.045Z,1.90
2017-07-11T14:35:31.804Z,2.10
2017-07-11T14:37:58.573Z,2.87
2017-07-11T14:40:25.371Z,2.07
2017-07-11T14:42:52.134Z,1.60
2017-07-11T14:45:18.876Z,1.73
2017-07-11T14:47:45.660Z,1.37
2017-07-11T14:50:12.411Z,1.37
2017-07-11T14:52:39.170Z,2.43
2017-07-11T14:55:05.955Z,0.63
2017-07-11T14:57:32.725Z,1.23
2017-07-11T14:59:59.503Z,2.17
2017-07-11T15:02:26.295Z,1.37
2017-07-11T15:04:53.059Z,1.57
2017-07-11T15:07:19.827Z,1.77
2017-07-11T15:09:46.888Z,1.13
2017-07-11T15:12:13.646Z,1.60
2017-07-11T15:14:40.400Z,1.57
2017-07-11T15:17:07.181Z,2.03
2017-07-11T15:19:33.927Z,1.83
2017-07-11T15:22:00.666Z,2.13
2017-07-11T15:24:27.452Z,2.50
2017-07-11T15:26:54.218Z,2.27
2017-07-11T15:29:20.986Z,2.07
2017-07-11T15:31:47.774Z,2.93
2017-07-11T15:34:14.534Z,1.60
2017-07-11T15:36:41.310Z,1.60
2017-07-11T15:39:08.421Z,1.47
2017-07-11T15:41:35.177Z,1.83
2017-07-11T15:44:01.952Z,1.10
2017-07-11T15:46:28.741Z,1.50
2017-07-11T15:48:55.503Z,2.40
2017-07-11T15:51:22.265Z,1.23
2017-07-11T15:53:49.071Z,1.70
2017-07-11T15:56:15.827Z,2.47
2017-07-11T15:58:42.589Z,2.10
2017-07-11T16:01:09.383Z,1.90
2017-07-11T16:03:36.123Z,4.97
2017-07-11T16:06:02.889Z,2.57
2017-07-11T16:08:29.689Z,3.27
2017-07-11T16:10:56.977Z,2.00
2017-07-11T16:13:23.747Z,1.50
2017-07-11T16:15:50.521Z,1.60
2017-07-11T16:18:17.271Z,1.30
2017-07-11T16:20:44.066Z,1.30
2017-07-11T16:23:10.851Z,1.10
2017-07-11T16:25:37.621Z,2.27
2017-07-11T16:28:04.435Z,18.23
2017-07-11T16:30:31.207Z,1.80
2017-07-11T16:32:57.979Z,1.90
2017-07-11T16:35:24.744Z,24.77
2017-07-11T16:37:51.580Z,1.50
2017-07-11T16:40:18.339Z,1.97
2017-07-11T16:42:45.084Z,2.37
2017-07-11T16:45:11.899Z,2.13
2017-07-11T16:47:38.657Z,2.23
2017-07-11T16:50:05.483Z,2.10
2017-07-11T16:52:33.245Z,1.60
2017-07-11T16:55:00.014Z,1.93
2017-07-11T16:57:26.817Z,1.30
2017-07-11T16:59:53.703Z,3.33
2017-07-11T17:02:20.456Z,2.10
2017-07-11T17:04:47.213Z,2.03
2017-07-11T17:07:13.998Z,1.50
2017-07-11T17:09:40.736Z,1.90
2017-07-11T17:12:07.508Z,1.73
2017-07-11T17:14:34.301Z,2.30
2017-07-11T17:17:01.069Z,1.50
2017-07-11T17:19:27.819Z,1.10
2017-07-11T17:21:55.494Z,1.30
2017-07-11T17:24:22.263Z,1.50
2017-07-11T17:26:49.028Z,1.33
2017-07-11T17:29:15.808Z,1.70
2017-07-11T17:31:42.549Z,1.90
2017-07-11T17:34:09.320Z,1.80
2017-07-11T17:36:36.097Z,1.50
2017-07-11T17:39:03.005Z,1.43
2017-07-11T17:41:29.752Z,2.40
2017-07-11T17:43:56.602Z,2.13
2017-07-11T17:46:23.402Z,2.07
2017-07-11T17:48:50.160Z,2.10
2017-07-11T17:51:17.005Z,1.83
2017-07-11T17:53:43.765Z,1.60
2017-07-11T17:56:10.506Z,2.20
2017-07-11T17:58:37.288Z,1.30
2017-07-11T18:01:04.033Z,1.20
2017-07-11T18:03:30.781Z,1.20
2017-07-11T18:05:57.561Z,1.20
2017-07-11T18:08:24.653Z,1.20
2017-07-11T18:10:51.397Z,1.13
2017-07-11T18:13:18.202Z,1.50
2017-07-11T18:15:45.297Z,1.33
2017-07-11T18:18:12.047Z,0.70
2017-07-11T18:20:38.839Z,1.20
2017-07-11T18:23:05.598Z,1.47
2017-07-11T18:25:32.366Z,1.70
2017-07-11T18:27:59.171Z,1.60
2017-07-11T18:30:25.927Z,1.70
2017-07-11T18:32:52.676Z,1.50
2017-07-11T18:35:19.482Z,1.30
2017-07-11T18:37:46.227Z,1.60
2017-07-11T18:40:12.976Z,1.77
2017-07-11T18:42:39.783Z,1.43
2017-07-11T18:45:06.688Z,1.00
2017-07-11T18:47:33.466Z,1.60
2017-07-11T18:50:00.246Z,1.80
2017-07-11T18:52:27.617Z,1.20
2017-07-11T18:54:54.865Z,1.47
2017-07-11T18:57:21.684Z,1.10
2017-07-11T18:59:48.450Z,1.67
2017-07-11T19:02:15.201Z,1.73
2017-07-11T19:04:42.012Z,1.77
2017-07-11T19:07:08.776Z,2.80
2017-07-11T19:09:35.525Z,1.30
2017-07-11T19:12:02.339Z,1.50
2017-07-11T19:14:29.893Z,1.30
2017-07-11T19:16:56.656Z,4.23
2017-07-11T19:19:24.403Z,1.50
2017-07-11T19:21:51.175Z,1.80
2017-07-11T19:24:17.997Z,1.57
2017-07-11T19:26:44.796Z,1.80
2017-07-11T19:29:11.613Z,1.70
2017-07-11T19:31:38.386Z,1.90
2017-07-11T19:34:05.190Z,1.80
2017-07-11T19:36:31.954Z,2.13
2017-07-11T19:38:58.911Z,1.90
2017-07-11T19:41:25.714Z,2.07
2017-07-11T19:43:53.104Z,1.70
2017-07-11T19:46:19.887Z,1.70
2017-07-11T19:48:47.253Z,1.87
2017-07-11T19:51:14.190Z,1.90
2017-07-11T19:53:40.978Z,3.83
2017-07-11T19:56:07.787Z,2.73
2017-07-11T19:58:34.581Z,1.57
2017-07-11T20:01:02.084Z,2.10
2017-07-11T20:03:29.007Z,2.03
2017-07-11T20:05:55.758Z,1.77
2017-07-11T20:08:22.661Z,1.57
2017-07-11T20:10:49.442Z,2.00
2017-07-11T20:13:16.212Z,2.40
2017-07-11T20:15:43.022Z,1.93
2017-07-11T20:18:09.830Z,2.10
2017-07-11T20:20:36.579Z,1.97
2017-07-11T20:23:03.332Z,2.20
2017-07-11T20:25:30.117Z,1.73
2017-07-11T20:27:56.898Z,2.40
2017-07-11T20:30:23.664Z,2.33
2017-07-11T20:32:51.135Z,2.67
2017-07-11T20:35:17.922Z,2.50
2017-07-11T20:37:44.684Z,2.50
2017-07-11T20:40:11.473Z,2.37
2017-07-11T20:42:38.305Z,2.07
2017-07-11T20:45:05.536Z,2.50
2017-07-11T20:47:33.679Z,2.80
2017-07-11T20:50:00.416Z,3.13
2017-07-11T20:52:27.171Z,2.50
2017-07-11T20:54:53.983Z,2.63
2017-07-11T20:57:21.511Z,2.47
2017-07-11T20:59:48.291Z,2.40
2017-07-11T21:02:15.667Z,3.43
2017-07-11T21:04:42.424Z,2.67
2017-07-11T21:07:09.191Z,2.43
2017-07-11T21:09:35.967Z,2.27
2017-07-11T21:12:02.734Z,3.10
2017-07-11T21:14:29.502Z,2.03
2017-07-11T21:16:56.307Z,2.23
2017-07-11T21:19:23.815Z,2.30
2017-07-11T21:21:50.579Z,2.57
2017-07-11T21:24:17.368Z,2.30
2017-07-11T21:26:44.126Z,2.53
2017-07-11T21:29:10.889Z,3.20
2017-07-11T21:31:37.686Z,2.63
2017-07-11T21:34:04.454Z,2.43
2017-07-11T21:36:31.230Z,2.97
2017-07-11T21:38:58.597Z,2.60
2017-07-11T21:41:25.350Z,3.07
2017-07-11T21:43:52.118Z,2.40
2017-07-11T21:46:18.946Z,2.80
2017-07-11T21:48:45.702Z,2.83
2017-07-11T21:51:12.834Z,2.90
2017-07-11T21:53:39.624Z,2.50
2017-07-11T21:56:06.364Z,3.50
2017-07-11T21:58:33.137Z,3.13
2017-07-11T22:00:59.935Z,2.70
2017-07-11T22:03:26.694Z,3.00
2017-07-11T22:05:53.435Z,3.10
2017-07-11T22:08:20.236Z,2.83
2017-07-11T22:10:47.012Z,2.47
2017-07-11T22:13:13.790Z,2.80
2017-07-11T22:15:40.583Z,2.70
2017-07-11T22:18:07.363Z,2.23
